Погода Сертанзиньюна 2 недели

Сан-Паулу, Бразилия

20 июля-01 августа
  • 20июля
    Сегодня
    +13°
    +31°
    Ясно и безоблачно
    ВремяПогодаТемператураВлажностьДавлениеВетер, м/сВероятность осадков
    00:00Ясно и безоблачно+18°C55 %716 мм2.4 м/с5 %
    03:00Ясно и безоблачно+15°C63 %715 мм2.0 м/с5 %
    06:00Ясно и безоблачно+14°C67 %714 мм1.9 м/с5 %
    09:00Ясно и безоблачно+18°C48 %716 мм2.4 м/с5 %
    12:00Ясно и безоблачно+28°C29 %717 мм2.3 м/с5 %
    15:00Ясно и безоблачно+30°C24 %715 мм2.7 м/с5 %
    18:00Ясно и безоблачно+27°C38 %714 мм2.2 м/с5 %
    21:00Ясно и безоблачно+20°C50 %714 мм2.4 м/с5 %
  • 21июля
    Воскресенье
    +13°
    +31°
    Ясно и безоблачно
    ВремяПогодаТемператураВлажностьДавлениеВетер, м/сВероятность осадков
    00:00Ясно и безоблачно+18°C50 %714 мм2.5 м/с5 %
    03:00Ясно и безоблачно+15°C63 %713 мм2.1 м/с5 %
    06:00Ясно и безоблачно+14°C68 %713 мм2.1 м/с5 %
    09:00Ясно и безоблачно+18°C51 %715 мм2.9 м/с5 %
    12:00Ясно и безоблачно+28°C33 %716 мм2.8 м/с5 %
    15:00Ясно и безоблачно+31°C27 %714 мм2.2 м/с5 %
    18:00Ясно и безоблачно+27°C33 %714 мм1.9 м/с5 %
    21:00Ясно и безоблачно+21°C47 %714 мм2.3 м/с5 %
  • 22июля
    Понедельник
    +14°
    +31°
    Ясно и безоблачно
    ВремяПогодаТемператураВлажностьДавлениеВетер, м/сВероятность осадков
    00:00Ясно и безоблачно+18°C53 %715 мм2.1 м/с5 %
    03:00Ясно и безоблачно+16°C60 %714 мм1.9 м/с5 %
    06:00Ясно и безоблачно+14°C69 %714 мм1.8 м/с5 %
    09:00Ясно и безоблачно+19°C50 %716 мм2.2 м/с5 %
    12:00Ясно и безоблачно+28°C30 %717 мм1.9 м/с5 %
    15:00Ясно и безоблачно+30°C25 %715 мм2.7 м/с5 %
    18:00Ясно и безоблачно+27°C39 %715 мм1.9 м/с5 %
    21:00Ясно и безоблачно+21°C39 %715 мм2.1 м/с5 %
  • 23июля
    Вторник
    +15°
    +31°
    Ясно и безоблачно
    ВремяПогодаТемператураВлажностьДавлениеВетер, м/сВероятность осадков
    00:00Ясно и безоблачно+19°C48 %715 мм2.5 м/с5 %
    03:00Ясно и безоблачно+16°C56 %714 мм2.1 м/с5 %
    06:00Ясно и безоблачно+14°C62 %714 мм2.0 м/с5 %
    09:00Ясно и безоблачно+19°C49 %716 мм2.8 м/с5 %
    12:00Ясно и безоблачно+29°C28 %717 мм2.7 м/с5 %
    15:00Ясно и безоблачно+31°C24 %715 мм2.5 м/с5 %
    18:00Ясно и безоблачно+27°C31 %715 мм2.0 м/с5 %
    21:00Ясно и безоблачно+21°C42 %715 мм2.4 м/с5 %
Мы используем cookies
Соглашаюсь